createdAt,value
2019-02-25T00:02:12.318Z,47.70
2019-02-25T00:04:42.543Z,48.10
2019-02-25T00:07:12.797Z,48.40
2019-02-25T00:09:42.589Z,48.40
2019-02-25T00:12:13.583Z,48.20
2019-02-25T00:14:43.140Z,48.70
2019-02-25T00:17:12.763Z,48.60
2019-02-25T00:19:42.480Z,48.50
2019-02-25T00:22:12.300Z,48.90
2019-02-25T00:24:41.888Z,49.20
2019-02-25T00:27:11.486Z,49.30
2019-02-25T00:29:41.074Z,49.00
2019-02-25T00:32:10.853Z,49.10
2019-02-25T00:34:41.009Z,49.40
2019-02-25T00:37:10.752Z,49.40
2019-02-25T00:39:40.647Z,49.40
2019-02-25T00:42:10.292Z,49.70
2019-02-25T00:44:39.885Z,49.90
2019-02-25T00:47:09.589Z,49.80
2019-02-25T00:49:39.300Z,50.10
2019-02-25T00:52:08.866Z,50.40
2019-02-25T00:54:38.554Z,50.30
2019-02-25T00:57:09.047Z,50.40
2019-02-25T00:59:38.712Z,50.60
2019-02-25T01:02:08.422Z,50.50
2019-02-25T01:04:38.101Z,50.50
2019-02-25T01:07:07.862Z,50.70
2019-02-25T01:09:37.650Z,50.90
2019-02-25T01:12:08.244Z,51.00
2019-02-25T01:14:37.920Z,51.20
2019-02-25T01:17:08.007Z,51.40
2019-02-25T01:19:37.669Z,51.90
2019-02-25T01:22:07.252Z,52.20
2019-02-25T01:24:36.851Z,52.40
2019-02-25T01:27:07.024Z,52.70
2019-02-25T01:29:37.440Z,52.70
2019-02-25T01:32:07.298Z,52.90
2019-02-25T01:34:36.863Z,52.90
2019-02-25T01:37:06.918Z,53.00
2019-02-25T01:39:47.966Z,53.40
2019-02-25T06:56:07.340Z,67.00
2019-02-25T06:58:37.044Z,67.50
2019-02-25T07:01:06.944Z,67.50
2019-02-25T07:03:36.616Z,67.50
2019-02-25T07:06:25.654Z,66.10
2019-02-25T07:09:26.269Z,64.30
2019-02-25T07:12:16.552Z,62.40
2019-02-25T07:15:01.698Z,61.80
2019-02-25T07:17:41.627Z,61.70
2019-02-25T07:20:45.612Z,61.20
2019-02-25T07:23:34.173Z,60.20
2019-02-25T07:26:14.332Z,59.80
2019-02-25T07:28:53.741Z,59.10
2019-02-25T07:31:36.248Z,58.30
2019-02-25T07:34:27.942Z,56.90
2019-02-25T07:37:16.410Z,56.50
2019-02-25T07:40:10.865Z,55.80
2019-02-25T07:43:11.332Z,53.70
2019-02-25T07:45:58.337Z,53.20
2019-02-25T07:48:49.727Z,51.00
2019-02-25T07:51:30.617Z,50.20
2019-02-25T07:54:19.095Z,49.90
2019-02-25T07:57:01.491Z,49.20
2019-02-25T07:59:52.813Z,48.90
2019-02-25T08:02:32.248Z,48.30
2019-02-25T08:05:22.632Z,47.60
2019-02-25T08:08:09.668Z,48.30
2019-02-25T08:11:07.363Z,45.90
2019-02-25T08:13:56.713Z,45.10
2019-02-25T08:16:43.877Z,44.10
2019-02-25T08:19:24.136Z,43.60
2019-02-25T08:22:18.652Z,41.90
2019-02-25T08:25:00.383Z,40.20
2019-02-25T08:27:47.541Z,37.80
2019-02-25T08:30:38.391Z,36.40
2019-02-25T08:33:23.862Z,37.40
2019-02-25T08:37:05.230Z,36.70
2019-02-25T08:40:02.652Z,36.80
2019-02-25T08:42:42.385Z,36.60
2019-02-25T08:45:18.365Z,37.20
2019-02-25T08:47:54.377Z,36.90
2019-02-25T08:50:24.063Z,37.30
2019-02-25T08:52:53.961Z,37.30
2019-02-25T08:55:24.948Z,38.20
2019-02-25T08:57:54.684Z,39.30
2019-02-25T09:00:24.368Z,39.60
2019-02-25T09:02:54.241Z,39.40
2019-02-25T09:05:23.879Z,39.20
2019-02-25T09:07:53.876Z,38.90
2019-02-25T09:10:23.604Z,38.40
2019-02-25T09:12:53.446Z,38.70
2019-02-25T09:15:23.210Z,38.70
2019-02-25T09:17:51.168Z,40.10
2019-02-25T09:20:21.078Z,40.50
2019-02-25T09:22:50.818Z,40.70
2019-02-25T09:25:20.537Z,40.00
2019-02-25T09:27:50.329Z,38.70
2019-02-25T09:30:20.064Z,37.50
2019-02-25T09:32:49.732Z,36.10
2019-02-25T09:35:19.686Z,35.70
2019-02-25T09:37:49.336Z,35.90
2019-02-25T09:40:19.104Z,37.30
2019-02-25T09:42:48.809Z,37.50
2019-02-25T09:45:18.512Z,38.00
2019-02-25T09:47:48.313Z,38.50
2019-02-25T09:50:18.187Z,39.00
2019-02-25T09:52:48.333Z,39.10
2019-02-25T09:55:18.390Z,37.80
2019-02-25T09:57:48.058Z,36.80
2019-02-25T10:00:17.855Z,35.70
2019-02-25T10:02:47.397Z,33.90
2019-02-25T10:05:17.265Z,35.20
2019-02-25T10:07:47.017Z,35.80
2019-02-25T10:10:16.862Z,36.20
2019-02-25T10:12:46.568Z,36.50
2019-02-25T10:15:16.645Z,37.20
2019-02-25T10:17:46.257Z,35.70
2019-02-25T10:20:16.044Z,34.90
2019-02-25T10:22:45.787Z,36.30
2019-02-25T10:25:15.577Z,36.20
2019-02-25T10:27:45.126Z,36.40
2019-02-25T10:30:15.045Z,37.00
2019-02-25T10:32:44.642Z,36.00
2019-02-25T10:35:15.275Z,34.90
2019-02-25T10:37:44.873Z,34.40
2019-02-25T10:40:15.503Z,33.80
2019-02-25T10:42:46.668Z,33.20
2019-02-25T10:45:17.114Z,32.50
2019-02-25T10:47:49.012Z,31.60
2019-02-25T10:50:19.144Z,31.50
2019-02-25T10:52:49.502Z,31.90
2019-02-25T10:55:24.338Z,31.70
2019-02-25T10:57:56.597Z,31.20
2019-02-25T11:00:25.293Z,30.70
2019-02-25T11:02:56.432Z,30.50
2019-02-25T11:05:29.956Z,30.40
2019-02-25T11:07:57.828Z,30.40
2019-02-25T11:10:46.175Z,31.30
2019-02-25T11:13:16.303Z,30.70
2019-02-25T11:15:48.131Z,30.70
2019-02-25T11:18:19.571Z,30.70
2019-02-25T11:20:48.659Z,30.70
2019-02-25T11:23:19.437Z,30.30
2019-02-25T11:25:51.364Z,29.90
2019-02-25T11:28:25.427Z,30.30
2019-02-25T11:30:53.848Z,29.80
2019-02-25T11:33:25.258Z,29.70
2019-02-25T11:35:55.210Z,30.70
2019-02-25T11:38:26.144Z,32.90
2019-02-25T11:40:56.476Z,35.50
2019-02-25T11:43:26.294Z,37.00
2019-02-25T11:45:55.855Z,38.70
2019-02-25T11:48:25.616Z,39.90
2019-02-25T11:50:55.532Z,41.30
2019-02-25T11:53:25.819Z,43.00
2019-02-25T11:55:55.622Z,44.20
2019-02-25T11:58:25.431Z,45.00
2019-02-25T12:00:55.089Z,45.30
2019-02-25T12:03:26.130Z,46.60
2019-02-25T12:05:55.760Z,47.10
2019-02-25T12:08:30.203Z,47.30
2019-02-25T12:10:59.934Z,47.50
2019-02-25T12:13:29.612Z,48.50
2019-02-25T12:15:59.339Z,48.90
2019-02-25T12:18:28.981Z,49.20
2019-02-25T12:20:58.699Z,49.50
2019-02-25T12:23:28.290Z,50.30
2019-02-25T12:25:58.011Z,50.40
2019-02-25T12:28:30.856Z,50.60
2019-02-25T12:31:00.623Z,51.20
2019-02-25T12:33:33.975Z,51.10
2019-02-25T12:36:04.021Z,51.10
2019-02-25T12:38:33.879Z,51.10
2019-02-25T12:41:03.595Z,51.50
2019-02-25T12:43:33.959Z,51.30
2019-02-25T12:46:03.782Z,51.80
2019-02-25T12:48:33.546Z,52.00
2019-02-25T12:51:03.267Z,52.00
2019-02-25T12:53:33.095Z,52.40
2019-02-25T12:56:02.815Z,52.60
2019-02-25T12:58:32.435Z,52.60
2019-02-25T13:01:02.144Z,52.60
2019-02-25T13:03:31.769Z,53.20
2019-02-25T13:06:01.685Z,53.30
2019-02-25T13:08:31.459Z,53.80
2019-02-25T13:11:01.198Z,53.90
2019-02-25T13:13:30.961Z,54.30
2019-02-25T13:16:00.672Z,54.50
2019-02-25T13:18:30.319Z,54.60
2019-02-25T13:21:00.003Z,54.70
2019-02-25T13:23:29.681Z,54.80
2019-02-25T13:26:07.258Z,54.90
2019-02-25T13:28:31.044Z,54.70
2019-02-25T13:31:03.262Z,55.00
2019-02-25T13:33:33.475Z,55.20
2019-02-25T13:36:03.185Z,55.60
2019-02-25T13:38:33.197Z,56.00
2019-02-25T13:41:03.027Z,56.20
2019-02-25T13:43:32.760Z,56.30
2019-02-25T13:46:02.609Z,56.50
2019-02-25T13:48:32.280Z,56.70
2019-02-25T13:51:02.526Z,57.00
2019-02-25T13:53:32.171Z,57.50
2019-02-25T13:56:05.760Z,57.80
2019-02-25T13:58:35.508Z,58.20
2019-02-25T14:01:07.254Z,58.60
2019-02-25T14:03:37.087Z,59.10
2019-02-25T14:06:06.820Z,59.10
2019-02-25T14:08:36.499Z,59.30
2019-02-25T14:11:06.210Z,59.40
2019-02-25T14:13:36.012Z,59.60
2019-02-25T14:16:05.731Z,59.70
2019-02-25T14:18:35.821Z,59.70
2019-02-25T14:21:05.981Z,59.60
2019-02-25T14:23:35.648Z,60.00
2019-02-25T14:26:05.331Z,60.10
2019-02-25T14:28:34.950Z,59.90
2019-02-25T14:31:04.620Z,59.90
2019-02-25T14:33:35.825Z,59.70
2019-02-25T14:36:06.247Z,59.60
2019-02-25T14:38:37.220Z,59.40
2019-02-25T14:41:09.039Z,59.20
2019-02-25T14:43:46.174Z,59.20
2019-02-25T14:46:12.091Z,59.10
2019-02-25T14:48:41.878Z,58.90
2019-02-25T14:51:11.811Z,58.80
2019-02-25T14:53:42.291Z,58.80
2019-02-25T14:56:12.710Z,58.50
2019-02-25T14:58:43.014Z,58.40
2019-02-25T15:01:13.580Z,58.70
2019-02-25T15:03:43.326Z,58.90
2019-02-25T15:06:13.142Z,59.00
2019-02-25T15:08:43.051Z,58.60
2019-02-25T15:11:13.138Z,58.80
2019-02-25T15:13:46.273Z,59.00
2019-02-25T15:16:15.853Z,59.00
2019-02-25T15:18:45.562Z,59.10
2019-02-25T15:21:16.019Z,59.40
2019-02-25T15:23:45.908Z,59.20
2019-02-25T15:26:17.368Z,59.10
2019-02-25T15:28:47.903Z,59.20
2019-02-25T15:31:17.495Z,59.20
2019-02-25T15:33:47.474Z,59.20
2019-02-25T15:36:17.794Z,59.20
2019-02-25T15:38:48.528Z,59.60
2019-02-25T15:41:18.084Z,59.30
2019-02-25T15:43:47.813Z,59.60
2019-02-25T15:46:19.580Z,59.50
2019-02-25T15:48:49.888Z,59.70
2019-02-25T15:51:20.031Z,59.70
2019-02-25T15:53:51.901Z,60.00
2019-02-25T15:56:21.376Z,60.30
2019-02-25T15:58:51.279Z,60.50
2019-02-25T16:01:21.604Z,60.80
2019-02-25T16:03:51.618Z,60.90
2019-02-25T16:06:24.779Z,60.80
2019-02-25T16:08:54.331Z,60.90
2019-02-25T16:11:25.650Z,60.90
2019-02-25T16:13:56.234Z,61.20
2019-02-25T16:16:27.147Z,61.10
2019-02-25T16:18:56.730Z,61.00
2019-02-25T16:21:27.186Z,61.30
2019-02-25T16:23:59.340Z,61.20
2019-02-25T16:26:29.643Z,61.30
2019-02-25T16:29:03.951Z,61.30
2019-02-25T16:31:31.479Z,61.70
2019-02-25T16:34:02.073Z,61.90
2019-02-25T16:36:32.844Z,62.40
2019-02-25T16:39:07.671Z,62.40
2019-02-25T16:41:39.285Z,62.40
2019-02-25T16:44:09.471Z,63.10
2019-02-25T16:46:41.233Z,63.40
2019-02-25T16:49:10.655Z,63.70
2019-02-25T16:51:41.305Z,63.80
2019-02-25T16:54:13.406Z,64.10
2019-02-25T16:56:45.744Z,64.30
2019-02-25T16:59:16.165Z,64.60
2019-02-25T17:01:47.215Z,64.90
2019-02-25T17:04:20.557Z,65.20
2019-02-25T17:06:49.141Z,65.30
2019-02-25T17:09:22.672Z,65.60
2019-02-25T17:11:52.430Z,65.80
2019-02-25T17:14:23.863Z,65.90
2019-02-25T17:16:56.620Z,66.40
2019-02-25T17:19:24.716Z,66.70
2019-02-25T17:21:54.314Z,66.70
2019-02-25T17:24:26.477Z,66.70
2019-02-25T17:26:57.330Z,66.90
2019-02-25T17:29:27.332Z,66.90
2019-02-25T17:31:59.582Z,67.20
2019-02-25T17:34:29.607Z,67.30
2019-02-25T17:36:59.705Z,67.20
2019-02-25T17:39:30.742Z,67.40
2019-02-25T17:42:01.414Z,67.60
2019-02-25T17:44:34.353Z,67.60
2019-02-25T17:47:06.548Z,67.60
2019-02-25T17:49:36.591Z,67.90
2019-02-25T17:52:07.904Z,67.90
2019-02-25T17:54:38.147Z,68.00
2019-02-25T17:57:09.806Z,68.20
2019-02-25T17:59:40.611Z,68.10
2019-02-25T18:02:12.724Z,68.30
2019-02-25T18:04:42.457Z,68.40
2019-02-25T18:07:11.985Z,68.50
2019-02-25T18:09:42.717Z,69.60
2019-02-25T18:12:13.047Z,68.80
2019-02-25T18:14:43.251Z,68.80
2019-02-25T18:17:16.674Z,69.10
2019-02-25T18:19:47.821Z,69.20
2019-02-25T18:22:17.465Z,69.30
2019-02-25T18:24:47.409Z,69.70
2019-02-25T18:27:17.474Z,70.10
2019-02-25T18:29:48.166Z,70.00
2019-02-25T18:32:18.650Z,70.30
2019-02-25T18:34:50.048Z,70.60
2019-02-25T18:37:19.979Z,70.70
2019-02-25T18:39:50.137Z,70.70
2019-02-25T18:42:21.085Z,70.80
2019-02-25T18:44:51.273Z,71.50
2019-02-25T18:47:23.465Z,71.00
2019-02-25T18:49:54.363Z,71.20
2019-02-25T18:52:25.936Z,72.00
2019-02-25T18:54:56.791Z,71.50
2019-02-25T18:57:27.352Z,71.80
2019-02-25T18:59:59.437Z,71.60
2019-02-25T19:02:30.052Z,71.90
2019-02-25T19:05:02.692Z,72.10
2019-02-25T19:07:33.767Z,72.20
2019-02-25T19:10:03.642Z,72.30
2019-02-25T19:12:33.919Z,72.50
2019-02-25T19:15:04.928Z,72.50
2019-02-25T19:17:34.903Z,72.50
2019-02-25T19:20:05.468Z,72.90
2019-02-25T19:22:36.048Z,73.20
2019-02-25T19:25:09.423Z,73.20
2019-02-25T19:27:38.372Z,72.90
2019-02-25T19:30:09.050Z,73.00
2019-02-25T19:32:40.423Z,73.20
2019-02-25T19:35:10.350Z,73.40
2019-02-25T19:37:42.173Z,73.70
2019-02-25T19:40:14.930Z,73.50
2019-02-25T19:42:47.353Z,73.60
2019-02-25T19:45:15.973Z,73.70
2019-02-25T19:47:45.852Z,73.70
2019-02-25T19:50:15.766Z,73.80
2019-02-25T19:52:46.648Z,73.90
2019-02-25T19:55:18.377Z,74.10
2019-02-25T20:00:28.218Z,74.30
2019-02-25T20:03:05.222Z,75.00
2019-02-25T20:05:30.585Z,75.70
2019-02-25T20:08:00.412Z,75.80
2019-02-25T20:10:30.731Z,75.70
2019-02-25T20:13:05.260Z,75.90
2019-02-25T20:15:32.798Z,76.10
2019-02-25T20:18:03.559Z,76.10
2019-02-25T20:20:38.425Z,76.10
2019-02-25T20:23:08.590Z,76.30
2019-02-25T20:25:42.344Z,76.40
2019-02-25T20:28:12.880Z,76.60
2019-02-25T20:30:43.023Z,76.50
2019-02-25T20:33:14.120Z,77.00
2019-02-25T20:35:49.001Z,76.90
2019-02-25T20:38:15.215Z,77.20
2019-02-25T20:40:47.087Z,77.30
2019-02-25T20:43:19.288Z,77.60
2019-02-25T20:45:48.157Z,78.10
2019-02-25T20:48:18.967Z,78.20
2019-02-25T20:50:48.680Z,78.40
2019-02-25T20:53:18.427Z,78.80
2019-02-25T20:55:52.520Z,79.30
2019-02-25T20:58:23.227Z,79.40
2019-02-25T21:00:52.851Z,79.70
2019-02-25T21:03:23.239Z,79.80
2019-02-25T21:05:53.868Z,79.90
2019-02-25T21:08:23.629Z,80.20
2019-02-25T21:10:53.789Z,80.60
2019-02-25T21:13:25.952Z,80.70
2019-02-25T21:15:54.791Z,81.10
2019-02-25T21:18:25.036Z,81.50
2019-02-25T21:20:57.450Z,81.70
2019-02-25T21:23:27.114Z,82.00
2019-02-25T21:25:59.500Z,82.40
2019-02-25T21:28:30.962Z,82.80
2019-02-25T21:30:59.234Z,83.00
2019-02-25T21:33:30.399Z,83.30
2019-02-25T21:36:00.380Z,83.40
2019-02-25T21:38:30.380Z,83.60
2019-02-25T21:41:01.139Z,83.70
2019-02-25T21:43:31.051Z,84.00
2019-02-25T21:46:01.654Z,84.30
2019-02-25T21:48:32.436Z,84.60
2019-02-25T21:51:06.638Z,84.80
2019-02-25T21:53:34.498Z,84.80
2019-02-25T21:56:04.878Z,85.00
2019-02-25T21:58:34.659Z,85.00
2019-02-25T22:01:04.676Z,85.00
2019-02-25T22:03:39.503Z,85.00
2019-02-25T22:06:06.216Z,85.00
2019-02-25T22:08:36.265Z,85.10
2019-02-25T22:11:12.377Z,85.30
2019-02-25T22:13:37.252Z,85.20
2019-02-25T22:16:08.050Z,84.80
2019-02-25T22:18:38.127Z,85.00
2019-02-25T22:21:09.439Z,85.20
2019-02-25T22:23:39.351Z,85.20
2019-02-25T22:26:09.329Z,85.30
2019-02-25T22:28:39.490Z,85.50
2019-02-25T22:31:10.912Z,85.30
2019-02-25T22:33:40.831Z,85.40
2019-02-25T22:36:10.360Z,85.50
2019-02-25T22:38:40.006Z,85.70
2019-02-25T22:41:09.813Z,85.90
2019-02-25T22:43:41.338Z,85.80
2019-02-25T22:46:11.638Z,85.90
2019-02-25T22:48:43.277Z,85.90
2019-02-25T22:51:12.767Z,86.10
2019-02-25T22:53:42.449Z,86.30
2019-02-25T22:56:13.567Z,86.30
2019-02-25T22:58:43.446Z,86.50
2019-02-25T23:01:18.061Z,86.60
2019-02-25T23:03:49.777Z,86.70
2019-02-25T23:06:20.755Z,86.80
2019-02-25T23:08:51.205Z,87.10
2019-02-25T23:11:24.337Z,86.90
2019-02-25T23:13:54.809Z,86.80
2019-02-25T23:16:25.463Z,87.00
2019-02-25T23:18:55.177Z,87.00
2019-02-25T23:21:26.956Z,87.00
2019-02-25T23:23:58.217Z,87.00
2019-02-25T23:26:27.455Z,87.00
2019-02-25T23:28:58.107Z,87.10
2019-02-25T23:31:29.949Z,87.10
2019-02-25T23:34:00.131Z,87.20
2019-02-25T23:36:29.835Z,87.20
2019-02-25T23:39:00.096Z,87.30
2019-02-25T23:41:34.343Z,87.30
2019-02-25T23:44:02.430Z,87.60
2019-02-25T23:46:34.487Z,87.60
2019-02-25T23:49:04.111Z,87.80
2019-02-25T23:51:33.635Z,87.80
2019-02-25T23:54:03.268Z,87.70
2019-02-25T23:56:32.803Z,87.80
2019-02-25T23:59:02.488Z,87.90
